Más de esta sección

METAR - AERONAUTICA

METAR
METAR MDPP 161900Z 09015KT 9999 FEW020CB BKN022 SCT300 30/26 Q1013 CB/E/S/SW/W=
METAR MDST 161900Z 07007KT 9999 FEW020CB BKN023 BKN300 34/23 Q1013 CB/SE/S/SW/W/N=
METAR MDPC 161900Z 16008KT 9999 FEW018CB SCT020 30/25 Q1014 CB/NW=
METAR MDBH 161900Z 13018KT 9999 FEW018CB FEW020 SCT080 31/27 Q1014 CB/NE/E/W/NW/N=
METAR MDJB 161900Z 18012KT 9999 SCT020 34/25 Q1013=
METAR MDSD 161900Z 16008KT 9999 FEW020CB SCT022 32/26 Q1014 CB/E/NW=
METAR MDLR 161900Z 22006KT 9999 FEW018CB BKN018 30/27 Q1013
CB/NE/E/N RETS=
METAR MDCY 161900Z 07012KT 9999 TS FEW019CB SCT019 31/29 Q1013 CB/SE/S=
METAR MDAB 161900Z 16004KT 8000 TSVCSH FEW018CB SCT022 34/27 Q1015 CB/S=